createdAt,value
2022-09-28T00:01:01.097Z,7.33
2022-09-28T00:03:29.115Z,5.30
2022-09-28T00:06:03.616Z,7.13
2022-09-28T00:08:31.762Z,5.23
2022-09-28T00:10:59.991Z,6.23
2022-09-28T00:13:28.196Z,5.73
2022-09-28T00:16:04.885Z,5.53
2022-09-28T00:18:32.989Z,5.63
2022-09-28T00:21:04.251Z,7.43
2022-09-28T00:23:33.034Z,7.60
2022-09-28T00:26:03.791Z,7.90
2022-09-28T00:28:32.068Z,8.27
2022-09-28T00:31:00.295Z,6.63
2022-09-28T00:33:29.452Z,7.87
2022-09-28T00:35:58.442Z,7.43
2022-09-28T00:38:31.035Z,8.30
2022-09-28T00:40:59.601Z,7.37
2022-09-28T00:43:28.018Z,8.23
2022-09-28T00:46:00.143Z,8.60
2022-09-28T00:48:32.260Z,9.73
2022-09-28T00:51:03.654Z,9.20
2022-09-28T00:53:35.793Z,7.67
2022-09-28T00:56:07.340Z,7.60
2022-09-28T00:58:40.638Z,9.87
2022-09-28T01:01:08.688Z,11.07
2022-09-28T01:03:37.671Z,13.53
2022-09-28T01:06:07.332Z,11.47
2022-09-28T01:08:38.195Z,11.87
2022-09-28T01:11:06.515Z,12.03
2022-09-28T01:13:35.068Z,9.70
2022-09-28T01:16:10.938Z,9.60
2022-09-28T01:18:46.594Z,15.17
2022-09-28T01:21:19.645Z,11.37
2022-09-28T01:24:22.655Z,10.00
2022-09-28T01:27:05.587Z,10.70
2022-09-28T01:29:42.460Z,10.40
2022-09-28T01:32:23.495Z,9.00
2022-09-28T01:34:58.850Z,11.70
2022-09-28T01:37:51.868Z,10.33
2022-09-28T01:40:22.557Z,11.70
2022-09-28T01:42:55.718Z,10.23
2022-09-28T01:45:27.425Z,11.70
2022-09-28T01:48:01.029Z,13.80
2022-09-28T01:50:32.043Z,12.27
2022-09-28T01:53:07.999Z,13.17
2022-09-28T01:55:42.356Z,11.93
2022-09-28T01:58:15.165Z,15.20
2022-09-28T02:00:48.058Z,15.57
2022-09-28T02:03:20.566Z,12.80
2022-09-28T02:05:59.570Z,11.47
2022-09-28T02:08:32.036Z,13.63
2022-09-28T02:11:15.932Z,11.70
2022-09-28T02:13:49.992Z,12.50
2022-09-28T02:16:22.539Z,11.53
2022-09-28T02:18:51.919Z,13.60
2022-09-28T02:21:24.864Z,12.10
2022-09-28T02:23:58.324Z,14.03
2022-09-28T02:26:32.486Z,12.30
2022-09-28T02:29:01.877Z,15.47
2022-09-28T02:31:30.106Z,15.23
2022-09-28T02:33:59.048Z,11.20
2022-09-28T02:36:28.312Z,11.33
2022-09-28T02:38:58.249Z,10.50
2022-09-28T02:41:38.658Z,12.73
2022-09-28T02:44:19.326Z,13.50
2022-09-28T02:46:57.911Z,12.53
2022-09-28T02:49:37.129Z,9.77
2022-09-28T02:52:25.682Z,9.13
2022-09-28T02:55:21.039Z,10.00
2022-09-28T02:58:09.946Z,10.57
2022-09-28T03:00:45.868Z,12.90
2022-09-28T03:03:20.101Z,11.93
2022-09-28T03:05:57.246Z,10.00
2022-09-28T03:08:28.691Z,13.57
2022-09-28T03:11:00.151Z,11.83
2022-09-28T03:13:29.688Z,10.17
2022-09-28T03:16:10.103Z,11.10
2022-09-28T03:18:38.408Z,9.03
2022-09-28T03:21:07.228Z,10.33
2022-09-28T03:23:35.114Z,11.73
2022-09-28T03:26:05.171Z,12.13
2022-09-28T03:28:34.513Z,9.67
2022-09-28T03:31:02.805Z,13.03
2022-09-28T03:33:32.270Z,10.90
2022-09-28T03:36:00.151Z,12.27
2022-09-28T03:38:28.154Z,9.33
2022-09-28T03:40:56.993Z,14.17
2022-09-28T03:43:25.986Z,8.37
2022-09-28T03:45:56.473Z,10.23
2022-09-28T03:48:28.801Z,7.77
2022-09-28T03:51:02.638Z,8.53
2022-09-28T03:53:31.033Z,14.87
2022-09-28T03:56:04.693Z,7.83
2022-09-28T03:58:33.584Z,9.27
2022-09-28T04:01:06.831Z,8.60
2022-09-28T04:03:35.042Z,11.17
2022-09-28T04:06:04.235Z,10.60
2022-09-28T04:08:32.434Z,11.50
2022-09-28T04:11:01.488Z,11.57
2022-09-28T04:13:31.545Z,12.37
2022-09-28T04:16:01.700Z,11.93
2022-09-28T04:18:34.507Z,11.30
2022-09-28T04:21:19.338Z,12.93
2022-09-28T04:23:53.007Z,9.53
2022-09-28T04:26:24.310Z,12.60
2022-09-28T04:29:09.905Z,12.87
2022-09-28T04:31:43.707Z,11.97
2022-09-28T04:34:12.588Z,10.30
2022-09-28T04:36:42.006Z,7.50
2022-09-28T04:39:09.938Z,7.83
2022-09-28T04:41:37.944Z,8.53
2022-09-28T04:44:05.897Z,9.50
2022-09-28T04:46:34.094Z,7.13
2022-09-28T04:49:20.263Z,7.27
2022-09-28T04:51:57.169Z,10.83
2022-09-28T04:54:25.078Z,8.27
2022-09-28T04:56:53.296Z,7.37
2022-09-28T04:59:21.170Z,8.10
2022-09-28T05:01:49.407Z,12.03
2022-09-28T05:04:35.883Z,7.80
2022-09-28T05:07:14.186Z,8.33
2022-09-28T05:09:42.064Z,10.47
2022-09-28T05:12:10.426Z,8.87
2022-09-28T05:14:38.872Z,7.60
2022-09-28T05:17:06.993Z,8.03
2022-09-28T05:19:40.643Z,9.73
2022-09-28T05:22:13.861Z,9.43
2022-09-28T05:24:47.379Z,10.83
2022-09-28T05:27:15.859Z,9.07
2022-09-28T05:29:46.937Z,13.50
2022-09-28T05:32:26.597Z,10.53
2022-09-28T05:35:12.586Z,10.17
2022-09-28T05:37:44.015Z,10.03
2022-09-28T05:40:13.655Z,10.97
2022-09-28T05:42:42.046Z,14.87
2022-09-28T05:45:11.356Z,13.63
2022-09-28T05:47:42.886Z,21.40
2022-09-28T05:50:15.624Z,12.07
2022-09-28T05:52:44.793Z,11.43
2022-09-28T05:55:14.567Z,17.97
2022-09-28T05:57:43.041Z,14.70
2022-09-28T06:00:12.663Z,13.40
2022-09-28T06:02:40.604Z,11.90
2022-09-28T06:05:12.171Z,13.37
2022-09-28T06:07:40.396Z,15.33
2022-09-28T06:10:09.028Z,15.60
2022-09-28T06:12:43.131Z,11.63
2022-09-28T06:15:17.278Z,11.83
2022-09-28T06:17:46.701Z,13.50
2022-09-28T06:20:36.198Z,12.30
2022-09-28T06:23:17.782Z,15.27
2022-09-28T06:25:45.728Z,15.90
2022-09-28T06:28:15.851Z,13.03
2022-09-28T06:30:44.945Z,12.20
2022-09-28T06:33:16.861Z,13.97
2022-09-28T06:35:45.003Z,13.37
2022-09-28T06:38:13.198Z,12.07
2022-09-28T06:40:41.279Z,12.50
2022-09-28T06:43:14.696Z,12.70
2022-09-28T06:46:03.443Z,11.13
2022-09-28T06:48:32.418Z,12.53
2022-09-28T06:51:01.680Z,12.33
2022-09-28T06:53:34.344Z,14.10
2022-09-28T06:56:10.902Z,11.57
2022-09-28T06:58:39.160Z,12.43
2022-09-28T07:01:10.948Z,11.33
2022-09-28T07:03:56.548Z,11.07
2022-09-28T07:06:48.122Z,12.60
2022-09-28T07:09:43.716Z,11.37
2022-09-28T07:12:30.145Z,13.07
2022-09-28T07:15:03.775Z,12.20
2022-09-28T07:17:39.175Z,11.90
2022-09-28T07:20:18.952Z,11.87
2022-09-28T07:22:48.669Z,9.73
2022-09-28T07:25:21.318Z,10.73
2022-09-28T07:28:12.996Z,9.17
2022-09-28T07:31:19.656Z,10.77
2022-09-28T07:34:02.458Z,12.00
2022-09-28T07:36:36.275Z,12.10
2022-09-28T07:39:04.960Z,10.27
2022-09-28T07:41:32.884Z,7.47
2022-09-28T07:44:06.501Z,8.17
2022-09-28T07:46:36.988Z,8.00
2022-09-28T07:49:16.668Z,11.07
2022-09-28T07:51:58.692Z,7.47
2022-09-28T07:54:30.215Z,8.77
2022-09-28T07:57:16.731Z,8.07
2022-09-28T07:59:53.521Z,8.47
2022-09-28T08:02:40.527Z,7.87
2022-09-28T08:05:11.327Z,9.60
2022-09-28T08:07:39.270Z,6.67
2022-09-28T08:10:10.452Z,8.80
2022-09-28T08:13:04.792Z,8.67
2022-09-28T08:15:44.062Z,6.43
2022-09-28T08:18:24.250Z,6.53
2022-09-28T08:21:12.115Z,7.10
2022-09-28T08:23:40.160Z,6.90
2022-09-28T08:26:12.122Z,6.20
2022-09-28T08:28:43.126Z,6.23
2022-09-28T08:31:31.027Z,6.47
2022-09-28T08:34:10.138Z,5.40
2022-09-28T08:36:59.335Z,8.30
2022-09-28T08:39:46.147Z,5.20
2022-09-28T08:42:35.660Z,9.83
2022-09-28T08:45:26.535Z,5.47
2022-09-28T08:48:27.083Z,7.83
2022-09-28T08:51:21.912Z,5.07
2022-09-28T08:54:45.653Z,6.07
2022-09-28T08:57:24.162Z,6.30
2022-09-28T08:59:55.683Z,5.37
2022-09-28T09:02:33.561Z,4.37
2022-09-28T09:05:23.856Z,7.07
2022-09-28T09:08:14.673Z,3.70
2022-09-28T09:10:53.174Z,5.83
2022-09-28T09:13:58.332Z,4.20
2022-09-28T09:16:36.189Z,6.10
2022-09-28T09:19:18.337Z,6.87
2022-09-28T09:22:12.710Z,5.20
2022-09-28T09:24:49.637Z,4.90
2022-09-28T09:27:43.635Z,3.10
2022-09-28T09:30:16.448Z,4.73
2022-09-28T09:33:07.763Z,3.87
2022-09-28T09:36:04.463Z,4.47
2022-09-28T09:39:16.987Z,4.50
2022-09-28T09:42:31.728Z,4.60
2022-09-28T09:45:45.786Z,5.23
2022-09-28T09:48:40.510Z,4.93
2022-09-28T09:51:19.049Z,4.20
2022-09-28T09:53:51.131Z,4.63
2022-09-28T09:56:23.690Z,3.63
2022-09-28T09:59:15.750Z,3.90
2022-09-28T10:02:03.541Z,4.97
2022-09-28T10:04:46.788Z,3.33
2022-09-28T10:07:25.812Z,3.80
2022-09-28T10:09:58.391Z,6.33
2022-09-28T10:12:49.506Z,3.77
2022-09-28T10:15:24.035Z,2.87
2022-09-28T10:18:24.330Z,3.90
2022-09-28T10:21:14.686Z,3.77
2022-09-28T10:23:58.279Z,5.80
2022-09-28T10:26:33.330Z,5.37
2022-09-28T10:29:05.614Z,3.37
2022-09-28T10:31:41.698Z,6.03
2022-09-28T10:34:18.784Z,3.37
2022-09-28T10:36:51.869Z,3.33
2022-09-28T10:39:28.752Z,2.70
2022-09-28T10:41:59.685Z,3.43
2022-09-28T10:44:31.305Z,3.07
2022-09-28T10:47:08.788Z,3.17
2022-09-28T10:49:46.845Z,4.57
2022-09-28T10:52:33.773Z,3.10
2022-09-28T10:55:02.443Z,3.53
2022-09-28T10:57:35.001Z,4.27
2022-09-28T11:00:08.246Z,3.60
2022-09-28T11:02:53.518Z,3.97
2022-09-28T11:05:27.756Z,3.70
2022-09-28T11:08:00.621Z,3.07
2022-09-28T11:10:35.900Z,3.40
2022-09-28T11:13:11.965Z,3.63
2022-09-28T11:15:44.258Z,4.23
2022-09-28T11:18:25.587Z,5.10
2022-09-28T11:20:53.654Z,2.87
2022-09-28T11:23:26.910Z,3.27
2022-09-28T11:26:01.037Z,4.33
2022-09-28T11:28:33.470Z,6.13
2022-09-28T11:31:08.803Z,3.93
2022-09-28T11:33:49.407Z,3.90
2022-09-28T11:36:53.119Z,3.13
2022-09-28T11:39:29.563Z,2.03
2022-09-28T11:42:18.403Z,3.37
2022-09-28T11:44:49.313Z,3.60
2022-09-28T11:47:38.415Z,3.73
2022-09-28T11:50:23.680Z,3.73
2022-09-28T11:52:58.546Z,4.20
2022-09-28T11:55:32.305Z,1.70
2022-09-28T11:58:07.281Z,2.60
2022-09-28T12:00:41.180Z,3.90
2022-09-28T12:03:15.903Z,3.77
2022-09-28T12:05:50.357Z,3.37
2022-09-28T12:08:25.201Z,2.77
2022-09-28T12:11:06.338Z,4.27
2022-09-28T12:13:58.371Z,3.03
2022-09-28T12:17:06.015Z,2.27
2022-09-28T12:19:39.643Z,3.90
2022-09-28T12:22:17.048Z,3.30
2022-09-28T12:24:48.516Z,3.23
2022-09-28T12:27:24.067Z,2.43
2022-09-28T12:29:56.540Z,2.60
2022-09-28T12:32:30.411Z,3.03
2022-09-28T12:34:58.817Z,2.97
2022-09-28T12:37:46.031Z,2.93
2022-09-28T12:40:38.246Z,3.27
2022-09-28T12:43:33.908Z,2.17
2022-09-28T12:46:22.989Z,1.47
2022-09-28T12:52:20.239Z,2.00
2022-09-28T12:55:16.043Z,3.00
2022-09-28T12:58:10.296Z,2.87
2022-09-28T13:00:48.709Z,1.60
2022-09-28T13:03:46.162Z,3.47
2022-09-28T13:06:48.584Z,1.83
2022-09-28T13:09:21.579Z,2.63
2022-09-28T13:12:11.375Z,3.13
2022-09-28T13:15:24.762Z,1.73
2022-09-28T13:18:00.838Z,3.97
2022-09-28T13:20:38.786Z,1.20
2022-09-28T13:23:15.990Z,2.17
2022-09-28T13:25:48.867Z,1.27
2022-09-28T13:28:25.005Z,2.33
2022-09-28T13:30:56.999Z,2.50
2022-09-28T13:33:33.663Z,1.30
2022-09-28T13:36:05.539Z,3.00
2022-09-28T13:38:55.090Z,3.23
2022-09-28T13:41:34.720Z,2.67
2022-09-28T13:44:40.475Z,1.93
2022-09-28T13:47:22.373Z,3.10
2022-09-28T13:50:03.456Z,3.53
2022-09-28T13:52:45.227Z,1.30
2022-09-28T13:55:25.779Z,2.20
2022-09-28T13:57:57.128Z,6.20
2022-09-28T14:00:30.985Z,1.90
2022-09-28T14:03:04.763Z,2.27
2022-09-28T14:06:05.481Z,2.73
2022-09-28T14:08:38.327Z,1.87
2022-09-28T14:11:42.328Z,1.30
2022-09-28T14:14:26.425Z,4.07
2022-09-28T14:17:16.552Z,3.03
2022-09-28T14:19:44.527Z,1.80
2022-09-28T14:22:24.466Z,1.07
2022-09-28T14:25:03.241Z,1.03
2022-09-28T14:27:51.241Z,1.07
2022-09-28T14:30:24.355Z,1.70
2022-09-28T14:32:57.536Z,2.50
2022-09-28T14:35:32.194Z,1.43
2022-09-28T14:38:25.406Z,1.47
2022-09-28T14:41:12.729Z,2.40
2022-09-28T14:44:05.138Z,1.90
2022-09-28T14:46:45.373Z,1.60
2022-09-28T14:49:50.358Z,1.30
2022-09-28T14:52:40.161Z,1.20
2022-09-28T14:55:16.808Z,2.27
2022-09-28T14:57:44.797Z,1.80
2022-09-28T15:00:21.236Z,1.33
2022-09-28T15:02:52.378Z,1.57
2022-09-28T15:05:27.106Z,2.40
2022-09-28T15:07:56.014Z,2.10
2022-09-28T15:10:28.190Z,3.40
2022-09-28T15:12:57.113Z,2.13
2022-09-28T15:15:29.393Z,2.93
2022-09-28T15:18:07.320Z,1.90
2022-09-28T15:20:41.486Z,1.77
2022-09-28T15:23:26.515Z,2.30
2022-09-28T15:25:55.863Z,0.80
2022-09-28T15:28:25.152Z,1.17
2022-09-28T15:30:59.677Z,1.20
2022-09-28T15:33:47.218Z,0.83
2022-09-28T15:36:20.722Z,1.67
2022-09-28T15:38:58.894Z,1.60
2022-09-28T15:41:27.878Z,2.03
2022-09-28T15:44:09.275Z,2.30
2022-09-28T15:46:40.274Z,1.30
2022-09-28T15:49:23.164Z,0.73
2022-09-28T15:51:55.407Z,0.50
2022-09-28T15:54:27.859Z,1.27
2022-09-28T15:56:59.623Z,2.10
2022-09-28T15:59:31.876Z,1.23
2022-09-28T16:02:08.196Z,0.93
2022-09-28T16:04:38.591Z,0.70
2022-09-28T16:07:19.955Z,0.97
2022-09-28T16:09:59.948Z,1.10
2022-09-28T16:12:33.276Z,0.80
2022-09-28T16:15:05.560Z,1.73
2022-09-28T16:17:36.366Z,0.80
2022-09-28T16:20:22.241Z,0.70
2022-09-28T16:22:53.563Z,0.80
2022-09-28T16:25:25.019Z,1.30
2022-09-28T16:27:55.026Z,1.00
2022-09-28T16:30:25.117Z,1.53
2022-09-28T16:32:56.377Z,1.43
2022-09-28T16:35:27.206Z,1.53
2022-09-28T16:38:02.301Z,0.70
2022-09-28T16:40:31.793Z,0.70
2022-09-28T16:43:03.235Z,0.93
2022-09-28T16:45:31.255Z,0.50
2022-09-28T16:48:01.504Z,1.73
2022-09-28T16:50:29.387Z,0.50
2022-09-28T16:53:19.685Z,0.50
2022-09-28T16:55:49.464Z,0.97
2022-09-28T16:58:18.555Z,0.50
2022-09-28T17:00:46.446Z,0.83
2022-09-28T17:03:17.544Z,0.67
2022-09-28T17:05:47.094Z,0.57
2022-09-28T17:08:18.183Z,0.83
2022-09-28T17:11:13.972Z,1.30
2022-09-28T17:13:41.407Z,0.93
2022-09-28T17:16:13.657Z,1.70
2022-09-28T17:18:41.964Z,0.83
2022-09-28T17:21:15.618Z,2.00
2022-09-28T17:23:45.179Z,1.57
2022-09-28T17:26:19.159Z,2.63
2022-09-28T17:28:47.052Z,1.00
2022-09-28T17:31:16.533Z,0.63
2022-09-28T17:33:44.595Z,0.97
2022-09-28T17:36:16.525Z,0.70
2022-09-28T17:38:47.566Z,0.93
2022-09-28T17:41:20.479Z,1.73
2022-09-28T17:43:49.088Z,1.80
2022-09-28T17:46:28.199Z,1.90
2022-09-28T17:48:59.265Z,2.43
2022-09-28T17:51:28.237Z,0.80
2022-09-28T17:53:57.545Z,1.17
2022-09-28T17:56:31.008Z,1.90
2022-09-28T17:59:01.322Z,0.77
2022-09-28T18:01:33.695Z,2.47
2022-09-28T18:04:02.559Z,0.70
2022-09-28T18:06:38.777Z,0.77
2022-09-28T18:09:08.808Z,1.33
2022-09-28T18:11:42.670Z,2.20
2022-09-28T18:14:11.448Z,1.27
2022-09-28T18:16:39.644Z,0.80
2022-09-28T18:19:07.564Z,1.10
2022-09-28T18:21:35.537Z,0.90
2022-09-28T18:24:03.462Z,1.37
2022-09-28T18:26:32.786Z,0.90
2022-09-28T18:29:00.697Z,1.20
2022-09-28T18:31:28.661Z,1.70
2022-09-28T18:34:00.360Z,9.77
2022-09-28T18:36:31.851Z,9.83
2022-09-28T18:39:01.907Z,6.40
2022-09-28T18:41:29.887Z,5.93
2022-09-28T18:44:01.071Z,4.57
2022-09-28T18:46:31.088Z,4.33
2022-09-28T18:48:59.116Z,6.50
2022-09-28T18:51:27.032Z,6.17
2022-09-28T18:53:55.074Z,4.33
2022-09-28T18:56:23.015Z,5.80
2022-09-28T18:58:52.501Z,8.70
2022-09-28T19:01:29.973Z,5.40
2022-09-28T19:04:00.619Z,6.50
2022-09-28T19:06:29.710Z,6.20
2022-09-28T19:08:57.795Z,7.50
2022-09-28T19:11:26.662Z,8.97
2022-09-28T19:13:55.841Z,7.60
2022-09-28T19:16:26.693Z,10.10
2022-09-28T19:18:54.671Z,13.73
2022-09-28T19:21:22.645Z,11.07
2022-09-28T19:23:50.708Z,12.53
2022-09-28T19:26:21.531Z,13.27
2022-09-28T19:28:49.620Z,11.50
2022-09-28T19:31:18.191Z,11.00
2022-09-28T19:33:48.098Z,12.17
2022-09-28T19:36:18.755Z,10.73
2022-09-28T19:38:47.297Z,12.93
2022-09-28T19:41:39.604Z,11.47
2022-09-28T19:44:15.600Z,13.43
2022-09-28T19:46:43.726Z,11.93
2022-09-28T19:49:17.527Z,13.90
2022-09-28T19:52:11.103Z,13.97
2022-09-28T19:54:36.645Z,14.30
2022-09-28T19:57:07.584Z,12.73
2022-09-28T19:59:36.619Z,12.73
2022-09-28T20:02:05.015Z,13.47
2022-09-28T20:04:34.384Z,14.00
2022-09-28T20:07:02.459Z,14.40
2022-09-28T20:09:30.542Z,14.50
2022-09-28T20:11:58.420Z,13.37
2022-09-28T20:14:31.798Z,12.70
2022-09-28T20:17:02.092Z,13.73
2022-09-28T20:19:29.948Z,16.93
2022-09-28T20:22:02.746Z,15.77
2022-09-28T20:24:31.030Z,13.67
2022-09-28T20:26:59.167Z,14.63
2022-09-28T20:29:27.010Z,13.30
2022-09-28T20:31:54.871Z,13.10
2022-09-28T20:34:22.716Z,16.47
2022-09-28T20:36:50.638Z,13.73
2022-09-28T20:39:19.968Z,14.00
2022-09-28T20:41:49.070Z,14.90
2022-09-28T20:44:17.113Z,12.90
2022-09-28T20:46:45.131Z,11.80
2022-09-28T20:49:13.067Z,14.37
2022-09-28T20:51:40.947Z,12.93
2022-09-28T20:54:09.096Z,13.23
2022-09-28T20:56:38.809Z,12.83
2022-09-28T20:59:10.420Z,14.33
2022-09-28T21:01:39.093Z,11.80
2022-09-28T21:04:09.230Z,14.93
2022-09-28T21:06:39.131Z,13.20
2022-09-28T21:09:09.043Z,12.43
2022-09-28T21:11:38.820Z,12.17
2022-09-28T21:14:10.024Z,11.97
2022-09-28T21:16:38.010Z,11.50
2022-09-28T21:19:05.962Z,10.27
2022-09-28T21:21:33.930Z,10.80
2022-09-28T21:24:02.275Z,10.30
2022-09-28T21:26:31.131Z,8.50
2022-09-28T21:29:01.652Z,8.33
2022-09-28T21:31:33.321Z,8.83
2022-09-28T21:34:01.591Z,8.63
2022-09-28T21:36:29.425Z,9.60
2022-09-28T21:38:57.599Z,10.37
2022-09-28T21:41:26.213Z,9.60
2022-09-28T21:43:54.179Z,10.10
2022-09-28T21:46:23.745Z,12.00
2022-09-28T21:48:54.794Z,8.97
2022-09-28T21:51:22.893Z,9.90
2022-09-28T21:53:50.804Z,8.73
2022-09-28T21:56:18.718Z,12.27
2022-09-28T21:58:46.878Z,10.00
2022-09-28T22:01:17.962Z,9.70
2022-09-28T22:03:50.416Z,10.27
2022-09-28T22:06:19.668Z,10.17
2022-09-28T22:08:48.685Z,9.73
2022-09-28T22:11:18.700Z,10.50
2022-09-28T22:13:48.527Z,7.63
2022-09-28T22:16:19.173Z,8.47
2022-09-28T22:18:48.655Z,8.53
2022-09-28T22:21:19.282Z,9.53
2022-09-28T22:23:47.261Z,8.87
2022-09-28T22:26:17.870Z,9.23
2022-09-28T22:28:47.870Z,8.47
2022-09-28T22:31:16.774Z,11.50
2022-09-28T22:33:44.869Z,7.87
2022-09-28T22:36:16.838Z,8.60
2022-09-28T22:38:45.365Z,7.87
2022-09-28T22:41:14.482Z,7.43
2022-09-28T22:43:42.962Z,9.87
2022-09-28T22:46:14.409Z,8.37
2022-09-28T22:48:43.164Z,8.30
2022-09-28T22:51:11.014Z,8.13
2022-09-28T22:53:40.209Z,9.57
2022-09-28T22:56:08.860Z,11.37
2022-09-28T22:58:38.079Z,8.63
2022-09-28T23:01:09.722Z,8.23
2022-09-28T23:03:39.964Z,10.50
2022-09-28T23:06:09.046Z,8.57
2022-09-28T23:08:37.444Z,8.33
2022-09-28T23:11:07.609Z,7.70
2022-09-28T23:13:37.465Z,8.87
2022-09-28T23:16:07.640Z,11.70
2022-09-28T23:18:37.229Z,10.50
2022-09-28T23:21:06.988Z,9.77
2022-09-28T23:23:35.420Z,11.00
2022-09-28T23:26:12.975Z,9.07
2022-09-28T23:28:40.999Z,9.57
2022-09-28T23:31:10.581Z,9.73
2022-09-28T23:33:38.971Z,10.00
2022-09-28T23:36:07.571Z,9.80
2022-09-28T23:38:35.509Z,8.50
2022-09-28T23:41:03.361Z,10.83
2022-09-28T23:43:32.583Z,10.33
2022-09-28T23:46:00.507Z,8.10
2022-09-28T23:48:28.451Z,8.63
2022-09-28T23:50:56.320Z,8.83
2022-09-28T23:53:24.184Z,8.13
2022-09-28T23:55:52.162Z,10.93
2022-09-28T23:58:20.269Z,7.33
